world map with NDZ marked

NDZ - Airport

This information may not be accurate or current and is not valid for navigation or flight planning. No warranty of fitness for any purpose is made or implied.

flag of Lower Saxonyflag of Germany

Donate via PayPal

Additional information is available on the NEW Great Circle Mapper

Location
City:  Nordholz-Spieka, Lower Saxony, Germany
Name:Cuxhaven
ICAO / IATA:ETMN / NDZ

Details
Type:Airport (Flugplatz, Airfield)
Use:Military
Latitude:53°46'04"N (53.767667)
Longitude:8°39'31"E (8.658500)
Elevation:74 ft (23 m)
Runways:1
Longest:8002 × 148 ft (2439 × 45 m)

Time
Timezone:UTC+1 (DST+4)
Local Time:

Weather
METAR:ETMN  170220Z 16003KT 0500 FZFG VV002 M00/M01 Q1014 RED
TAF:ETMN  (expired)

Related Locations
Nearby:
Farthest:CHT: 11705 mi / 18837 km
Waitangi [Tuuta], CIT, NZ

Find:

   beyond  
but within

Other Information
Maps:
Sources:

  


 


Great Circle Mapper   Great Circle Mapper
Great Circle Mapper FAQ   Great Circle Mapper FAQ
  Karl's Home Page
KLSē   KLSē Home
   GC on Facebook
Airlines of the World   Airlines of the World
Donate via PayPal


Copyright © 2004-2018, Karl L. Swartz. All rights reserved.
All trademarks mentioned herein belong to their respective owners.

Please see credits for attribution and copyright information.

Karl Swartz <karl@kls2.com>
  Powered by FreeBSD
Valid HTML 4.01!
Labeled with ICRA
hCard Microformat
Geo Microformat